Time;durP1;ratioP1;P1;durP2;ratioP2;P2;SDS_P1;SDS_P2;PMS_P1;PMS_P2;Temp;Humidity;BMP_temperature;BMP_pressure;BME280_temperature;BME280_humidity;BME280_pressure;Samples;Min_cycle;Max_cycle;Signal;HPM_P1;HPM_P2
2023/10/05 00:00:57;;;;;;;7.68;6.03;;;;;;;;;;5117211;28;20036;-63
2023/10/05 00:03:23;;;;;;;8.07;5.97;;;;;;;;;;5116202;28;20040;-62
2023/10/05 00:05:49;;;;;;;6.65;5.18;;;;;;;;;;5117118;27;20343;-55
2023/10/05 00:08:14;;;;;;;7.07;6.20;;;;;;;;;;5115779;28;20062;-55
2023/10/05 00:10:40;;;;;;;9.60;5.63;;;;;;;;;;5116011;28;20038;-55
2023/10/05 00:13:07;;;;;;;9.40;6.05;;;;;;;;;;5098379;28;20031;-56
2023/10/05 00:15:38;;;;;;;8.02;6.07;;;;;;;;;;5116855;28;20040;-56
2023/10/05 00:18:06;;;;;;;9.38;5.93;;;;;;;;;;5116677;28;20067;-55
2023/10/05 00:20:38;;;;;;;8.75;6.75;;;;;;;;;;5116991;28;20051;-56
2023/10/05 00:23:06;;;;;;;7.95;6.40;;;;;;;;;;5116912;28;20039;-56
2023/10/05 00:25:33;;;;;;;8.55;6.50;;;;;;;;;;5117048;28;20042;-56
2023/10/05 00:28:01;;;;;;;11.85;6.40;;;;;;;;;;5116729;28;20031;-56
2023/10/05 00:30:27;;;;;;;10.63;6.40;;;;;;;;;;5116441;28;20122;-56
2023/10/05 00:32:56;;;;;;;9.77;6.63;;;;;;;;;;5115684;28;20126;-56
2023/10/05 00:35:26;;;;;;;11.02;6.13;;;;;;;;;;5115273;28;20055;-56
2023/10/05 00:37:55;;;;;;;9.80;5.88;;;;;;;;;;5115049;28;20063;-56
2023/10/05 00:40:32;;;;;;;9.27;6.15;;;;;;;;;;5116410;28;20055;-55
2023/10/05 00:43:01;;;;;;;10.70;7.20;;;;;;;;;;5116696;28;20032;-56
2023/10/05 00:45:31;;;;;;;8.38;5.95;;;;;;;;;;5116580;28;20034;-56
2023/10/05 00:48:08;;;;;;;9.43;5.90;;;;;;;;;;5097823;28;20169;-56
2023/10/05 00:50:34;;;;;;;8.80;5.25;;;;;;;;;;5116138;28;20038;-56
2023/10/05 00:52:59;;;;;;;9.45;5.95;;;;;;;;;;5116575;28;20362;-56
2023/10/05 00:55:25;;;;;;;6.40;5.50;;;;;;;;;;5098299;28;20042;-56
2023/10/05 00:57:51;;;;;;;7.63;5.80;;;;;;;;;;5115847;28;20044;-56
2023/10/05 01:00:27;;;;;;;10.18;6.18;;;;;;;;;;5116474;28;20046;-56
2023/10/05 01:06:25;;;;;;;9.40;6.13;;;;;;;;;;4997264;28;20046;-56
2023/10/05 01:08:59;;;;;;;9.05;5.90;;;;;;;;;;4997140;28;20103;-56
2023/10/05 01:11:37;;;;;;;10.90;6.53;;;;;;;;;;5086981;28;20119;-56
2023/10/05 01:14:02;;;;;;;8.52;6.05;;;;;;;;;;5116097;28;20074;-56
2023/10/05 01:16:32;;;;;;;10.02;6.13;;;;;;;;;;5116193;28;20409;-56
2023/10/05 01:18:59;;;;;;;9.43;6.28;;;;;;;;;;5097358;28;20420;-56
2023/10/05 01:21:27;;;;;;;8.32;5.78;;;;;;;;;;5115619;28;20032;-56
2023/10/05 01:23:52;;;;;;;9.15;6.25;;;;;;;;;;5115253;28;20039;-57
2023/10/05 01:26:18;;;;;;;7.50;5.50;;;;;;;;;;5097072;28;20015;-56
2023/10/05 01:28:44;;;;;;;6.80;5.43;;;;;;;;;;5097034;28;20140;-56
2023/10/05 01:31:20;;;;;;;12.80;6.13;;;;;;;;;;5096589;28;20036;-56
2023/10/05 01:33:46;;;;;;;8.77;5.70;;;;;;;;;;5115329;28;20081;-56
2023/10/05 01:36:15;;;;;;;8.50;5.97;;;;;;;;;;5114979;28;20032;-56
2023/10/05 01:38:41;;;;;;;8.68;5.60;;;;;;;;;;5115145;28;20044;-56
2023/10/05 01:41:07;;;;;;;8.02;5.95;;;;;;;;;;5113502;28;20055;-56
2023/10/05 01:43:35;;;;;;;7.88;5.90;;;;;;;;;;5113730;28;20496;-56
2023/10/05 01:46:02;;;;;;;9.30;6.13;;;;;;;;;;5114238;28;20071;-56
2023/10/05 01:48:30;;;;;;;10.70;6.47;;;;;;;;;;5115149;28;20051;-56
2023/10/05 01:51:06;;;;;;;8.65;5.78;;;;;;;;;;5113652;28;20032;-56
2023/10/05 01:53:32;;;;;;;9.27;5.95;;;;;;;;;;5115122;28;20031;-56
2023/10/05 01:55:59;;;;;;;8.45;6.00;;;;;;;;;;5114098;28;20031;-56
2023/10/05 01:58:27;;;;;;;9.20;5.90;;;;;;;;;;5113886;28;20028;-56
2023/10/05 02:00:54;;;;;;;6.25;5.65;;;;;;;;;;5113583;28;20028;-56
2023/10/05 02:03:23;;;;;;;9.48;5.75;;;;;;;;;;5114997;28;20043;-58
2023/10/05 02:05:50;;;;;;;9.07;5.85;;;;;;;;;;5115012;28;20130;-55
2023/10/05 02:08:15;;;;;;;9.50;5.93;;;;;;;;;;5113737;28;20066;-62
2023/10/05 02:10:46;;;;;;;12.85;5.78;;;;;;;;;;5113891;28;20035;-62
2023/10/05 02:13:12;;;;;;;10.55;6.10;;;;;;;;;;5113724;28;20077;-62
2023/10/05 02:15:39;;;;;;;10.20;5.93;;;;;;;;;;5096898;28;20119;-63
2023/10/05 02:18:08;;;;;;;8.27;5.60;;;;;;;;;;5113328;28;20384;-63
2023/10/05 02:23:02;;;;;;;9.15;5.82;;;;;;;;;;5116175;27;20493;-63
2023/10/05 02:25:36;;;;;;;8.65;5.50;;;;;;;;;;5135334;27;20380;-64
2023/10/05 02:28:03;;;;;;;7.60;5.72;;;;;;;;;;5116286;28;20414;-64
2023/10/05 02:30:28;;;;;;;10.15;6.20;;;;;;;;;;5135277;27;20342;-56
2023/10/05 02:32:55;;;;;;;6.13;4.95;;;;;;;;;;5099336;27;20034;-57
2023/10/05 02:35:29;;;;;;;7.82;5.70;;;;;;;;;;5135554;28;20035;-57
2023/10/05 02:37:54;;;;;;;7.90;5.22;;;;;;;;;;5116232;28;20043;-55
2023/10/05 02:40:34;;;;;;;6.93;5.13;;;;;;;;;;5109151;28;20101;-55
2023/10/05 02:43:03;;;;;;;7.88;5.35;;;;;;;;;;5054006;27;20045;-55
2023/10/05 02:45:29;;;;;;;9.18;5.60;;;;;;;;;;5054512;28;20029;-56
2023/10/05 02:47:54;;;;;;;8.57;5.68;;;;;;;;;;5054435;27;20052;-56
2023/10/05 02:50:21;;;;;;;6.97;5.72;;;;;;;;;;5123736;27;20037;-56
2023/10/05 02:52:47;;;;;;;8.77;5.78;;;;;;;;;;5123628;27;20467;-56
2023/10/05 02:55:14;;;;;;;9.82;5.57;;;;;;;;;;5123825;27;20021;-56
2023/10/05 02:57:40;;;;;;;7.38;5.15;;;;;;;;;;5123453;27;20276;-55
2023/10/05 03:00:08;;;;;;;7.35;5.35;;;;;;;;;;5123886;27;20037;-56
2023/10/05 03:02:45;;;;;;;9.52;5.45;;;;;;;;;;5123800;27;20029;-55
2023/10/05 03:05:11;;;;;;;7.35;5.45;;;;;;;;;;5053904;28;20114;-55
2023/10/05 03:07:41;;;;;;;8.68;5.85;;;;;;;;;;5123187;27;20494;-56
2023/10/05 03:10:06;;;;;;;7.53;5.63;;;;;;;;;;5053958;27;20037;-56
2023/10/05 03:12:36;;;;;;;7.57;5.67;;;;;;;;;;5123830;27;20033;-56
2023/10/05 03:15:06;;;;;;;10.77;5.85;;;;;;;;;;5123134;27;20486;-56
2023/10/05 03:17:33;;;;;;;9.15;5.18;;;;;;;;;;5123049;27;20041;-56
2023/10/05 03:19:59;;;;;;;7.22;5.65;;;;;;;;;;5123064;27;20025;-56
2023/10/05 03:22:24;;;;;;;8.63;5.55;;;;;;;;;;5053931;28;20037;-56
2023/10/05 03:24:53;;;;;;;6.47;5.30;;;;;;;;;;5122823;27;20116;-56
2023/10/05 03:27:22;;;;;;;9.60;5.97;;;;;;;;;;5122955;27;20093;-56
2023/10/05 03:29:57;;;;;;;13.07;5.97;;;;;;;;;;5123426;27;20099;-56
2023/10/05 03:32:28;;;;;;;10.32;5.88;;;;;;;;;;5122939;27;20498;-57
2023/10/05 03:34:56;;;;;;;6.15;5.40;;;;;;;;;;5122903;27;20386;-57
2023/10/05 03:37:22;;;;;;;7.60;5.72;;;;;;;;;;5123014;27;20064;-56
2023/10/05 03:39:53;;;;;;;7.70;5.88;;;;;;;;;;5122751;27;20491;-57
2023/10/05 03:42:22;;;;;;;9.35;5.25;;;;;;;;;;5122784;27;20065;-63
2023/10/05 03:47:52;;;;;;;10.90;5.78;;;;;;;;;;5078058;28;19954;-56
2023/10/05 03:50:19;;;;;;;9.80;6.22;;;;;;;;;;5110621;27;20064;-56
2023/10/05 03:52:48;;;;;;;8.38;5.43;;;;;;;;;;5121558;27;20483;-56
2023/10/05 03:55:18;;;;;;;6.03;5.43;;;;;;;;;;5122505;27;20041;-57
2023/10/05 03:57:45;;;;;;;9.60;5.88;;;;;;;;;;5053246;28;20064;-63
2023/10/05 04:00:23;;;;;;;9.00;5.65;;;;;;;;;;5053573;27;20068;-62
2023/10/05 04:02:50;;;;;;;8.35;5.78;;;;;;;;;;5122375;27;20044;-63
2023/10/05 04:05:20;;;;;;;7.32;5.65;;;;;;;;;;5053668;27;20044;-62
2023/10/05 04:07:50;;;;;;;9.67;5.57;;;;;;;;;;5053090;28;20041;-62
2023/10/05 04:10:21;;;;;;;7.20;5.20;;;;;;;;;;5105294;27;20275;-62
2023/10/05 04:12:48;;;;;;;9.90;5.60;;;;;;;;;;5053118;27;20442;-62
2023/10/05 04:15:17;;;;;;;7.72;5.65;;;;;;;;;;5053183;27;20069;-62
2023/10/05 04:17:43;;;;;;;8.63;5.85;;;;;;;;;;5053238;28;20123;-62
2023/10/05 04:20:19;;;;;;;7.15;5.60;;;;;;;;;;5052740;28;20072;-62
2023/10/05 04:22:49;;;;;;;6.28;5.28;;;;;;;;;;5121437;27;20479;-56
2023/10/05 04:25:16;;;;;;;7.10;5.13;;;;;;;;;;5121669;27;20475;-56
2023/10/05 04:27:42;;;;;;;7.13;5.22;;;;;;;;;;5052437;27;20514;-56
2023/10/05 04:30:07;;;;;;;7.82;5.78;;;;;;;;;;5053172;27;20061;-56
2023/10/05 04:32:33;;;;;;;7.72;5.13;;;;;;;;;;5053122;27;20440;-63
2023/10/05 04:35:01;;;;;;;10.68;6.07;;;;;;;;;;5121870;27;20124;-63
2023/10/05 04:37:26;;;;;;;11.25;5.93;;;;;;;;;;5052664;28;20497;-59
2023/10/05 04:39:53;;;;;;;8.70;5.55;;;;;;;;;;5121144;27;20041;-63
2023/10/05 04:42:18;;;;;;;8.98;5.90;;;;;;;;;;5052642;28;20052;-64
2023/10/05 04:44:46;;;;;;;7.05;5.65;;;;;;;;;;5052627;28;20068;-64
2023/10/05 04:47:14;;;;;;;9.18;6.20;;;;;;;;;;5052935;28;20110;-56
2023/10/05 04:49:39;;;;;;;10.60;6.05;;;;;;;;;;5052680;28;20388;-63
2023/10/05 04:52:06;;;;;;;8.57;6.45;;;;;;;;;;5052247;28;20033;-56
2023/10/05 04:54:35;;;;;;;13.27;6.68;;;;;;;;;;5052809;28;20029;-56
2023/10/05 04:57:07;;;;;;;10.80;6.93;;;;;;;;;;5052098;28;20049;-56
2023/10/05 05:02:12;;;;;;;11.23;7.57;;;;;;;;;;5121034;27;20048;-64
2023/10/05 05:07:09;;;;;;;9.32;7.18;;;;;;;;;;5120830;27;20482;-63
2023/10/05 05:09:39;;;;;;;12.02;7.05;;;;;;;;;;5120903;27;20044;-63
2023/10/05 05:12:17;;;;;;;13.90;7.13;;;;;;;;;;5052595;27;20382;-63
2023/10/05 05:14:47;;;;;;;14.18;7.43;;;;;;;;;;5120870;27;20037;-63
2023/10/05 05:17:14;;;;;;;8.23;6.70;;;;;;;;;;5052022;28;20037;-63
2023/10/05 05:19:39;;;;;;;7.38;5.93;;;;;;;;;;5052001;28;20092;-63
2023/10/05 05:22:05;;;;;;;10.10;6.57;;;;;;;;;;5051977;28;20487;-63
2023/10/05 05:24:31;;;;;;;13.65;7.00;;;;;;;;;;5120492;27;20055;-63
2023/10/05 05:27:03;;;;;;;10.38;6.43;;;;;;;;;;5052264;27;20451;-64
2023/10/05 05:29:32;;;;;;;11.05;5.63;;;;;;;;;;5051901;27;20037;-62
2023/10/05 05:31:58;;;;;;;12.07;6.20;;;;;;;;;;5051949;27;20029;-61
2023/10/05 05:34:25;;;;;;;8.68;5.75;;;;;;;;;;5051613;27;20515;-62
2023/10/05 05:36:56;;;;;;;12.40;6.70;;;;;;;;;;5052014;28;20084;-62
2023/10/05 05:39:22;;;;;;;13.05;6.57;;;;;;;;;;5073232;27;20531;-62
2023/10/05 05:41:56;;;;;;;13.68;7.03;;;;;;;;;;5155777;27;20035;-62
2023/10/05 05:44:24;;;;;;;11.25;5.93;;;;;;;;;;5156498;27;20117;-61
2023/10/05 05:46:51;;;;;;;8.30;5.10;;;;;;;;;;5156123;27;20026;-62
2023/10/05 05:49:17;;;;;;;7.55;5.05;;;;;;;;;;5154937;27;20582;-62
2023/10/05 05:51:44;;;;;;;9.88;5.82;;;;;;;;;;5155706;27;20034;-61
2023/10/05 05:54:10;;;;;;;5.55;4.35;;;;;;;;;;5154648;27;20030;-62
2023/10/05 05:56:38;;;;;;;8.30;4.75;;;;;;;;;;5154818;27;20038;-62
2023/10/05 05:59:03;;;;;;;8.40;5.20;;;;;;;;;;5155897;27;20031;-61
2023/10/05 06:01:29;;;;;;;7.78;5.65;;;;;;;;;;5149906;22;20057;-54
2023/10/05 06:03:56;;;;;;;7.57;5.80;;;;;;;;;;5094427;22;20084;-54
2023/10/05 06:06:23;;;;;;;9.70;5.57;;;;;;;;;;5058812;28;20430;-61
2023/10/05 06:08:49;;;;;;;7.90;5.13;;;;;;;;;;5088399;28;20489;-54
2023/10/05 06:11:14;;;;;;;6.72;4.65;;;;;;;;;;5071262;28;20095;-61
2023/10/05 06:13:41;;;;;;;7.68;4.35;;;;;;;;;;5089699;28;20046;-62
2023/10/05 06:16:09;;;;;;;5.90;4.88;;;;;;;;;;5089808;28;20036;-61
2023/10/05 06:18:35;;;;;;;8.00;4.80;;;;;;;;;;5090633;28;20058;-61
2023/10/05 06:21:01;;;;;;;7.68;4.57;;;;;;;;;;5090418;28;20044;-61
2023/10/05 06:23:26;;;;;;;5.72;4.18;;;;;;;;;;5090777;28;20048;-62
2023/10/05 06:25:53;;;;;;;5.32;4.40;;;;;;;;;;5090509;28;20046;-62
2023/10/05 06:28:19;;;;;;;8.38;4.63;;;;;;;;;;5090740;28;20070;-61
2023/10/05 06:30:44;;;;;;;7.93;4.70;;;;;;;;;;5090281;28;20364;-61
2023/10/05 06:33:10;;;;;;;6.15;4.82;;;;;;;;;;5071888;28;20371;-61
2023/10/05 06:35:36;;;;;;;6.90;4.18;;;;;;;;;;5090402;28;20409;-62
2023/10/05 06:38:03;;;;;;;6.72;4.78;;;;;;;;;;5072248;28;20040;-61
2023/10/05 06:40:29;;;;;;;8.25;4.82;;;;;;;;;;5088567;28;20044;-61
2023/10/05 06:42:57;;;;;;;6.32;4.40;;;;;;;;;;5071050;28;20115;-62
2023/10/05 06:45:23;;;;;;;5.85;4.57;;;;;;;;;;5089229;28;20512;-61
2023/10/05 06:47:49;;;;;;;5.43;4.38;;;;;;;;;;5071257;28;20040;-61
2023/10/05 06:50:15;;;;;;;6.90;4.30;;;;;;;;;;5089155;28;20043;-61
2023/10/05 06:52:46;;;;;;;6.32;4.35;;;;;;;;;;5070737;28;20040;-61
2023/10/05 06:55:17;;;;;;;5.80;3.78;;;;;;;;;;5070765;28;20130;-61
2023/10/05 06:57:43;;;;;;;4.72;3.70;;;;;;;;;;5088720;28;20044;-61
2023/10/05 07:00:16;;;;;;;6.78;3.83;;;;;;;;;;5088772;28;20040;-61
2023/10/05 07:02:43;;;;;;;7.18;4.57;;;;;;;;;;5070489;28;20478;-61
2023/10/05 07:05:09;;;;;;;5.47;3.72;;;;;;;;;;5088829;28;20115;-54
2023/10/05 07:07:35;;;;;;;6.15;4.05;;;;;;;;;;5089043;28;20044;-54
2023/10/05 07:10:03;;;;;;;7.13;4.53;;;;;;;;;;5088517;28;20513;-54
2023/10/05 07:12:35;;;;;;;5.55;4.22;;;;;;;;;;5089263;28;20032;-61
2023/10/05 07:15:01;;;;;;;7.50;4.22;;;;;;;;;;5088745;28;20042;-61
2023/10/05 07:17:26;;;;;;;6.95;4.32;;;;;;;;;;5088809;28;20039;-61
2023/10/05 07:19:52;;;;;;;6.43;4.13;;;;;;;;;;5088498;28;20162;-61
2023/10/05 07:22:18;;;;;;;6.10;3.92;;;;;;;;;;5088792;28;20032;-61
2023/10/05 07:24:44;;;;;;;6.53;4.20;;;;;;;;;;5088694;28;20044;-61
2023/10/05 07:27:09;;;;;;;5.60;3.90;;;;;;;;;;5088421;28;20040;-61
2023/10/05 07:29:34;;;;;;;5.85;4.18;;;;;;;;;;5072966;28;20040;-61
2023/10/05 07:32:00;;;;;;;5.88;4.10;;;;;;;;;;5092061;28;20040;-61
2023/10/05 07:34:26;;;;;;;6.55;3.85;;;;;;;;;;5092379;28;20036;-61
2023/10/05 07:36:51;;;;;;;6.43;3.47;;;;;;;;;;5074319;28;20036;-62
2023/10/05 07:39:18;;;;;;;6.05;3.83;;;;;;;;;;5092334;28;20123;-54
2023/10/05 07:41:45;;;;;;;5.72;3.58;;;;;;;;;;5092068;28;20050;-54
2023/10/05 07:44:11;;;;;;;6.20;3.47;;;;;;;;;;5092225;28;20478;-54
2023/10/05 07:46:38;;;;;;;5.18;3.08;;;;;;;;;;5092098;28;20052;-54
2023/10/05 07:49:03;;;;;;;3.80;3.42;;;;;;;;;;5091920;28;20050;-54
2023/10/05 07:51:29;;;;;;;5.30;3.35;;;;;;;;;;5057027;28;20031;-54
2023/10/05 07:53:54;;;;;;;4.82;3.15;;;;;;;;;;5091979;28;20036;-54
2023/10/05 07:56:19;;;;;;;5.22;3.20;;;;;;;;;;5092647;28;20541;-54
2023/10/05 07:58:45;;;;;;;4.47;2.97;;;;;;;;;;5092186;28;20037;-54
2023/10/05 08:01:10;;;;;;;3.17;2.78;;;;;;;;;;5073474;28;20071;-54
2023/10/05 08:03:39;;;;;;;4.68;2.90;;;;;;;;;;5091611;28;20278;-54
2023/10/05 08:06:05;;;;;;;4.03;2.33;;;;;;;;;;5091876;28;20043;-55
2023/10/05 08:08:31;;;;;;;3.58;2.97;;;;;;;;;;5073328;28;20116;-54
2023/10/05 08:10:56;;;;;;;4.97;3.22;;;;;;;;;;5091521;28;20068;-54
2023/10/05 08:13:23;;;;;;;6.93;2.75;;;;;;;;;;5091771;28;20141;-54
2023/10/05 08:15:48;;;;;;;5.22;2.55;;;;;;;;;;5091427;28;20036;-54
2023/10/05 08:18:13;;;;;;;3.35;2.70;;;;;;;;;;5091635;28;20414;-54
2023/10/05 08:20:39;;;;;;;4.60;3.00;;;;;;;;;;5091251;28;20402;-61
2023/10/05 08:23:06;;;;;;;5.82;3.22;;;;;;;;;;5091532;28;20067;-61
2023/10/05 08:25:31;;;;;;;3.85;2.35;;;;;;;;;;5091367;28;20048;-61
2023/10/05 08:27:57;;;;;;;2.95;2.25;;;;;;;;;;5091695;28;20036;-61
2023/10/05 08:30:25;;;;;;;4.07;2.33;;;;;;;;;;5091257;28;20040;-61
2023/10/05 08:32:50;;;;;;;2.75;2.40;;;;;;;;;;5091181;28;20482;-61
2023/10/05 08:35:19;;;;;;;3.03;2.28;;;;;;;;;;5090983;28;20040;-61
2023/10/05 08:37:48;;;;;;;2.67;1.98;;;;;;;;;;5091005;28;20398;-61
2023/10/05 08:43:08;;;;;;;2.50;1.90;;;;;;;;;;5090806;28;20032;-61
2023/10/05 08:45:38;;;;;;;2.55;2.08;;;;;;;;;;5091208;28;20040;-61
2023/10/05 08:48:08;;;;;;;3.27;2.00;;;;;;;;;;5072700;28;20036;-61
2023/10/05 08:50:35;;;;;;;3.17;1.95;;;;;;;;;;5090906;28;20305;-61
2023/10/05 08:53:00;;;;;;;4.43;2.03;;;;;;;;;;5091223;28;20478;-61
2023/10/05 08:55:28;;;;;;;3.70;2.40;;;;;;;;;;5090971;28;20034;-61
2023/10/05 08:57:54;;;;;;;2.10;1.73;;;;;;;;;;5090915;28;20036;-62
2023/10/05 09:00:38;;;;;;;2.38;1.77;;;;;;;;;;5090444;28;20458;-61
2023/10/05 09:03:06;;;;;;;2.35;1.80;;;;;;;;;;5090641;28;20048;-61
2023/10/05 09:05:33;;;;;;;3.58;1.25;;;;;;;;;;5090630;28;20047;-61
2023/10/05 09:07:59;;;;;;;2.38;1.85;;;;;;;;;;5090486;28;20097;-61
2023/10/05 09:10:26;;;;;;;2.33;1.70;;;;;;;;;;5090322;28;20028;-61
2023/10/05 09:12:58;;;;;;;2.03;1.80;;;;;;;;;;5090499;28;20040;-61
2023/10/05 09:17:56;;;;;;;2.42;2.05;;;;;;;;;;5090665;28;20048;-61
2023/10/05 09:20:23;;;;;;;2.83;1.83;;;;;;;;;;5090334;28;20036;-61
2023/10/05 09:22:51;;;;;;;3.22;1.80;;;;;;;;;;5090619;28;20056;-61
2023/10/05 09:25:26;;;;;;;2.17;1.70;;;;;;;;;;5090520;28;20082;-62
2023/10/05 09:27:51;;;;;;;1.90;1.08;;;;;;;;;;5090244;28;20050;-62
2023/10/05 09:30:21;;;;;;;3.92;1.27;;;;;;;;;;5090478;28;20028;-61
2023/10/05 09:32:47;;;;;;;2.22;1.73;;;;;;;;;;5090499;28;20036;-61
2023/10/05 09:35:27;;;;;;;2.90;1.88;;;;;;;;;;5090502;28;20370;-61
2023/10/05 09:37:56;;;;;;;2.08;1.65;;;;;;;;;;5090367;28;20040;-62
2023/10/05 09:40:22;;;;;;;3.50;1.75;;;;;;;;;;5072717;28;20032;-61
2023/10/05 09:42:50;;;;;;;2.95;1.60;;;;;;;;;;5090002;28;20106;-61
2023/10/05 09:45:17;;;;;;;3.70;1.58;;;;;;;;;;5090596;28;20371;-61
2023/10/05 09:47:46;;;;;;;3.67;1.98;;;;;;;;;;5090721;28;20102;-61
2023/10/05 09:50:13;;;;;;;2.63;1.30;;;;;;;;;;5072084;28;20043;-61
2023/10/05 09:52:45;;;;;;;3.42;1.48;;;;;;;;;;5090142;28;20050;-61
2023/10/05 09:55:12;;;;;;;1.92;1.75;;;;;;;;;;5090939;28;20039;-61
2023/10/05 09:57:46;;;;;;;0.98;0.85;;;;;;;;;;5090177;28;20051;-61
2023/10/05 10:00:47;;;;;;;1.65;1.55;;;;;;;;;;5089865;28;20040;-61
2023/10/05 10:03:15;;;;;;;5.55;2.22;;;;;;;;;;5089980;28;20056;-61
2023/10/05 10:05:59;;;;;;;3.45;1.90;;;;;;;;;;5089778;28;20059;-61
2023/10/05 10:08:26;;;;;;;1.73;0.95;;;;;;;;;;5090715;28;20407;-61
2023/10/05 10:11:18;;;;;;;2.95;1.70;;;;;;;;;;5090252;28;20020;-61
2023/10/05 10:13:49;;;;;;;1.40;1.30;;;;;;;;;;5089735;28;20051;-61
2023/10/05 10:16:21;;;;;;;3.38;2.15;;;;;;;;;;5090323;28;20036;-61
2023/10/05 10:18:57;;;;;;;3.00;2.05;;;;;;;;;;5090080;28;20578;-60
2023/10/05 10:21:32;;;;;;;2.05;1.50;;;;;;;;;;5090196;28;20406;-61
2023/10/05 10:24:06;;;;;;;5.75;2.30;;;;;;;;;;5089721;28;20112;-61
2023/10/05 10:26:36;;;;;;;3.63;2.47;;;;;;;;;;5090189;28;20044;-60
2023/10/05 10:29:05;;;;;;;3.87;2.53;;;;;;;;;;5090357;28;20036;-61
2023/10/05 10:31:30;;;;;;;5.43;2.55;;;;;;;;;;5089891;28;20024;-60
2023/10/05 10:34:05;;;;;;;5.03;2.50;;;;;;;;;;5072058;28;20394;-61
2023/10/05 10:36:47;;;;;;;2.05;1.50;;;;;;;;;;5090391;28;20032;-60
2023/10/05 10:39:27;;;;;;;1.27;1.15;;;;;;;;;;5090010;28;20044;-60
2023/10/05 10:42:07;;;;;;;1.08;1.00;;;;;;;;;;5089673;28;20505;-61
2023/10/05 10:44:57;;;;;;;3.20;1.77;;;;;;;;;;5090100;28;20028;-60
2023/10/05 10:47:23;;;;;;;3.30;1.77;;;;;;;;;;5090117;28;20524;-60
2023/10/05 10:50:11;;;;;;;4.13;2.28;;;;;;;;;;5089639;28;20024;-60
2023/10/05 10:52:37;;;;;;;3.88;1.70;;;;;;;;;;5072018;28;20040;-60
2023/10/05 10:55:04;;;;;;;2.10;1.77;;;;;;;;;;5090073;28;20059;-60
2023/10/05 10:57:30;;;;;;;3.58;1.95;;;;;;;;;;5090065;28;20113;-61
2023/10/05 11:00:37;;;;;;;3.72;1.80;;;;;;;;;;5089863;28;20052;-60
2023/10/05 11:02:42;;;;;;;2.33;1.65;;;;;;;;;;5090374;28;20048;-60
2023/10/05 11:05:14;;;;;;;3.65;1.90;;;;;;;;;;5093696;28;20048;-60
2023/10/05 11:07:43;;;;;;;3.75;1.63;;;;;;;;;;5093805;28;20055;-60
2023/10/05 11:10:21;;;;;;;2.67;1.40;;;;;;;;;;5093767;28;20128;-60
2023/10/05 11:12:53;;;;;;;2.92;1.60;;;;;;;;;;5093832;28;20035;-60
2023/10/05 11:15:20;;;;;;;2.58;1.42;;;;;;;;;;5093574;28;20032;-60
2023/10/05 11:17:46;;;;;;;2.90;1.77;;;;;;;;;;5093574;28;20615;-60
2023/10/05 11:20:24;;;;;;;3.42;1.90;;;;;;;;;;5093020;28;20051;-60
2023/10/05 11:23:01;;;;;;;2.67;1.48;;;;;;;;;;5093538;28;20474;-60
2023/10/05 11:25:35;;;;;;;2.88;1.70;;;;;;;;;;5093642;28;20040;-60
2023/10/05 11:28:00;;;;;;;3.55;1.77;;;;;;;;;;5093656;28;20040;-60
2023/10/05 11:30:41;;;;;;;3.40;1.67;;;;;;;;;;5075116;28;20728;-60
2023/10/05 11:33:15;;;;;;;4.97;1.73;;;;;;;;;;5093636;28;20497;-60
2023/10/05 11:35:48;;;;;;;2.17;1.65;;;;;;;;;;5093361;28;20032;-60
2023/10/05 11:38:14;;;;;;;1.50;1.15;;;;;;;;;;5093034;28;20607;-60
2023/10/05 11:40:49;;;;;;;10.02;2.05;;;;;;;;;;5093357;28;20035;-60
2023/10/05 11:43:18;;;;;;;4.10;2.20;;;;;;;;;;5093349;28;20048;-60
2023/10/05 11:45:59;;;;;;;3.55;1.67;;;;;;;;;;5092808;28;20040;-60
2023/10/05 11:48:27;;;;;;;5.93;1.77;;;;;;;;;;5093203;28;20039;-60
2023/10/05 11:50:52;;;;;;;2.30;1.30;;;;;;;;;;5092982;28;20043;-61
2023/10/05 11:53:21;;;;;;;6.85;1.83;;;;;;;;;;5092728;28;20040;-60
2023/10/05 11:55:49;;;;;;;3.63;1.70;;;;;;;;;;5092648;28;20527;-60
2023/10/05 11:58:16;;;;;;;5.13;2.05;;;;;;;;;;5092601;28;20036;-60
2023/10/05 12:00:43;;;;;;;4.65;2.42;;;;;;;;;;5092905;28;20032;-60
2023/10/05 12:03:09;;;;;;;3.08;1.73;;;;;;;;;;5092648;28;20058;-60
2023/10/05 12:05:38;;;;;;;4.82;2.00;;;;;;;;;;5092995;28;20040;-60
2023/10/05 12:08:04;;;;;;;5.03;1.92;;;;;;;;;;5092867;28;20040;-60
2023/10/05 12:10:31;;;;;;;5.28;1.85;;;;;;;;;;5092764;28;20401;-60
2023/10/05 12:12:57;;;;;;;2.60;1.73;;;;;;;;;;5092656;28;20023;-60
2023/10/05 12:15:22;;;;;;;5.22;2.35;;;;;;;;;;5091984;28;20044;-60
2023/10/05 12:17:49;;;;;;;4.55;1.95;;;;;;;;;;5092660;28;20083;-60
2023/10/05 12:20:14;;;;;;;0.68;0.68;;;;;;;;;;5092462;28;20051;-60
2023/10/05 12:22:40;;;;;;;5.00;2.25;;;;;;;;;;5092551;28;20063;-60
2023/10/05 12:25:07;;;;;;;7.78;2.22;;;;;;;;;;5092357;28;20401;-60
2023/10/05 12:27:33;;;;;;;4.63;1.92;;;;;;;;;;5092003;28;20040;-60
2023/10/05 12:29:59;;;;;;;4.80;2.53;;;;;;;;;;5091938;28;20039;-60
2023/10/05 12:32:24;;;;;;;6.13;2.47;;;;;;;;;;5090631;28;20036;-60
2023/10/05 12:34:51;;;;;;;7.40;2.47;;;;;;;;;;5091701;28;20040;-60
2023/10/05 12:37:21;;;;;;;5.35;2.40;;;;;;;;;;5092253;28;20047;-60
2023/10/05 12:39:47;;;;;;;3.05;1.27;;;;;;;;;;5092047;28;20067;-60
2023/10/05 12:42:12;;;;;;;5.85;2.20;;;;;;;;;;5092078;28;20681;-60
2023/10/05 12:44:39;;;;;;;3.78;2.00;;;;;;;;;;5092230;28;20043;-60
2023/10/05 12:47:07;;;;;;;3.22;1.60;;;;;;;;;;5091986;28;20032;-60
2023/10/05 12:49:33;;;;;;;3.75;1.65;;;;;;;;;;5091805;28;20174;-60
2023/10/05 12:51:59;;;;;;;4.68;2.20;;;;;;;;;;5091980;28;20114;-62
2023/10/05 12:54:34;;;;;;;3.30;1.67;;;;;;;;;;5091961;28;20111;-60
2023/10/05 12:57:09;;;;;;;2.97;2.10;;;;;;;;;;5091859;28;20139;-60
2023/10/05 12:59:34;;;;;;;6.82;2.25;;;;;;;;;;5073193;28;20040;-60
2023/10/05 13:02:07;;;;;;;3.53;1.90;;;;;;;;;;5091957;28;20157;-60
2023/10/05 13:04:32;;;;;;;2.17;1.77;;;;;;;;;;5091153;28;20043;-60
2023/10/05 13:06:57;;;;;;;1.80;1.40;;;;;;;;;;5090326;28;20073;-60
2023/10/05 13:09:23;;;;;;;3.53;1.52;;;;;;;;;;5089790;28;20040;-60
2023/10/05 13:11:49;;;;;;;4.63;1.95;;;;;;;;;;5090435;28;20055;-60
2023/10/05 13:14:14;;;;;;;2.13;1.75;;;;;;;;;;5089189;28;20062;-60
2023/10/05 13:16:50;;;;;;;4.35;1.63;;;;;;;;;;5070669;28;20507;-60
2023/10/05 13:19:18;;;;;;;2.20;1.77;;;;;;;;;;5089874;28;20071;-60
2023/10/05 13:21:43;;;;;;;2.75;1.70;;;;;;;;;;5090456;28;20564;-60
2023/10/05 13:24:11;;;;;;;2.10;1.70;;;;;;;;;;5091181;28;20036;-60
2023/10/05 13:26:45;;;;;;;4.43;1.50;;;;;;;;;;5091670;28;20081;-60
2023/10/05 13:29:11;;;;;;;2.20;1.83;;;;;;;;;;5091696;28;20047;-60
2023/10/05 13:31:39;;;;;;;4.05;1.88;;;;;;;;;;5091997;28;20048;-60
2023/10/05 13:34:09;;;;;;;3.75;1.92;;;;;;;;;;5091175;28;20501;-60
2023/10/05 13:36:37;;;;;;;3.55;1.88;;;;;;;;;;5091066;28;20036;-60
2023/10/05 13:39:10;;;;;;;5.90;1.95;;;;;;;;;;5090871;28;20490;-60
2023/10/05 13:41:38;;;;;;;3.78;1.85;;;;;;;;;;5091313;28;20135;-62
2023/10/05 13:44:04;;;;;;;3.63;1.77;;;;;;;;;;5091517;28;20035;-63
2023/10/05 13:46:35;;;;;;;4.60;1.83;;;;;;;;;;5088266;28;20040;-63
2023/10/05 13:49:01;;;;;;;2.33;1.77;;;;;;;;;;5084374;28;20110;-55
2023/10/05 13:51:29;;;;;;;2.45;1.48;;;;;;;;;;5070963;28;20538;-53
2023/10/05 13:53:55;;;;;;;3.53;2.38;;;;;;;;;;5072862;28;20048;-53
2023/10/05 13:56:31;;;;;;;3.20;2.20;;;;;;;;;;5071071;28;20044;-53
2023/10/05 13:59:01;;;;;;;3.58;1.95;;;;;;;;;;5070489;28;20122;-53
2023/10/05 14:01:45;;;;;;;4.35;2.33;;;;;;;;;;5070634;28;20098;-53
2023/10/05 14:04:12;;;;;;;3.70;2.47;;;;;;;;;;5070095;28;20744;-53
2023/10/05 14:06:39;;;;;;;5.15;2.63;;;;;;;;;;5070348;28;20525;-53
2023/10/05 14:09:05;;;;;;;3.65;2.80;;;;;;;;;;5070546;28;20554;-53
2023/10/05 14:11:38;;;;;;;3.75;2.42;;;;;;;;;;5071044;28;20147;-53
2023/10/05 14:14:04;;;;;;;3.20;1.95;;;;;;;;;;5070193;28;20060;-54
2023/10/05 14:16:37;;;;;;;5.78;2.63;;;;;;;;;;5070822;28;20028;-54
2023/10/05 14:19:04;;;;;;;1.98;1.48;;;;;;;;;;5069829;28;20040;-54
2023/10/05 14:21:29;;;;;;;2.55;1.67;;;;;;;;;;5070114;28;20069;-54
2023/10/05 14:23:58;;;;;;;4.28;2.35;;;;;;;;;;5069473;28;20052;-54
2023/10/05 14:26:26;;;;;;;4.25;2.10;;;;;;;;;;5068954;28;20028;-54
2023/10/05 14:28:53;;;;;;;4.07;2.50;;;;;;;;;;5068624;28;20756;-54
2023/10/05 14:31:18;;;;;;;5.72;3.05;;;;;;;;;;5070015;28;20094;-54
2023/10/05 14:33:44;;;;;;;4.97;2.75;;;;;;;;;;5070056;28;20044;-53
2023/10/05 14:36:09;;;;;;;7.15;2.75;;;;;;;;;;5071181;28;20072;-61
2023/10/05 14:38:35;;;;;;;6.00;3.20;;;;;;;;;;5069547;28;20102;-62
2023/10/05 14:41:00;;;;;;;5.22;3.03;;;;;;;;;;5070507;28;20041;-62
2023/10/05 14:43:35;;;;;;;4.93;2.58;;;;;;;;;;5069940;28;20040;-56
2023/10/05 14:46:02;;;;;;;6.13;3.67;;;;;;;;;;5069498;28;20037;-55
2023/10/05 14:48:30;;;;;;;4.40;2.80;;;;;;;;;;5069117;28;20402;-55
2023/10/05 14:50:59;;;;;;;4.55;3.15;;;;;;;;;;5069769;28;20143;-55
2023/10/05 14:53:25;;;;;;;5.43;2.88;;;;;;;;;;5068965;28;20035;-55
2023/10/05 14:55:51;;;;;;;5.47;2.97;;;;;;;;;;5051760;28;20050;-55
2023/10/05 14:58:22;;;;;;;7.93;3.50;;;;;;;;;;5051924;28;20041;-55
2023/10/05 15:00:48;;;;;;;6.57;3.67;;;;;;;;;;5069681;28;20051;-55
2023/10/05 15:03:14;;;;;;;6.40;3.53;;;;;;;;;;5069604;28;20056;-55
2023/10/05 15:05:41;;;;;;;7.07;3.13;;;;;;;;;;5069830;28;20052;-55
2023/10/05 15:08:08;;;;;;;5.78;3.13;;;;;;;;;;5069669;28;20048;-55